Terminal Aerodrome Forecast
Issued by NWS

Home | Current Version | Previous Version | Text Only | Print | Product List | Glossary On
Versions: 1 2 3 4 5 6 7 8 9 10 11 12 13 14 15 16
857
FTUS43 KAPX 041720
TAFPLN
TAF
KPLN 041720Z 0418/0518 36011KT P6SM VCSH OVC015
     FM042100 36012KT P6SM VCSH OVC018
     FM050100 36009KT P6SM OVC015
     FM050600 36004KT P6SM OVC012
     FM051400 36006KT P6SM BKN025
     FM051600 35007KT P6SM SCT025=

USA.gov is the U.S. government's official web portal to all federal, state and local government web resources and services.